Погода Паулистана 2 недели

Параиба, Бразилия

23 июля-05 августа
  • 23июля
    Сегодня
    +20°
    +33°
    Ясно и безоблачно
    ВремяПогодаТемператураВлажностьДавлениеВетер, м/сВероятность осадков
    00:00Ясно и безоблачно+24°C64 %749 мм4.1 м/с5 %
    03:00Ясно и безоблачно+21°C70 %748 мм1.8 м/с5 %
    06:00Ясно и безоблачно+19°C80 %748 мм1.7 м/с5 %
    09:00Ясно и безоблачно+26°C52 %750 мм3.3 м/с5 %
    12:00Ясно и безоблачно+32°C33 %748 мм4.9 м/с5 %
    15:00Ясно и безоблачно+33°C29 %746 мм5.3 м/с5 %
    18:00Ясно и безоблачно+30°C37 %747 мм5.1 м/с5 %
    21:00Ясно и безоблачно+27°C49 %748 мм5.4 м/с5 %
  • 24июля
    Среда
    +19°
    +32°
    Ясно и безоблачно
    ВремяПогодаТемператураВлажностьДавлениеВетер, м/сВероятность осадков
    00:00Ясно и безоблачно+24°C70 %749 мм4.6 м/с5 %
    03:00Ясно и безоблачно+22°C77 %748 мм2.8 м/с5 %
    06:00Ясно и безоблачно+20°C78 %749 мм2.4 м/с5 %
    09:00Ясно и безоблачно+26°C48 %750 мм4.1 м/с4 %
    12:00Ясно и безоблачно+31°C33 %748 мм5.6 м/с4 %
    15:00Ясно и безоблачно+31°C30 %746 мм5.5 м/с5 %
    18:00Ясно и безоблачно+29°C36 %747 мм4.8 м/с5 %
    21:00Ясно и безоблачно+26°C50 %749 мм6.2 м/с5 %
  • 25июля
    Четверг
    +20°
    +32°
    Облачно с прояснениями
    ВремяПогодаТемператураВлажностьДавлениеВетер, м/сВероятность осадков
    00:00Ясно и безоблачно+24°C63 %750 мм5.5 м/с5 %
    03:00Практически безоблачно+21°C73 %749 мм2.5 м/с5 %
    06:00Ясно и безоблачно+20°C78 %749 мм1.7 м/с5 %
    09:00Небольшая облачность+26°C51 %750 мм7.0 м/с3 %
    12:00Облачно с прояснениями+31°C34 %748 мм6.3 м/с5 %
    15:00Облачно с прояснениями+32°C32 %745 мм5.9 м/с5 %
    18:00Небольшая облачность+30°C40 %746 мм4.5 м/с5 %
    21:00Ясно и безоблачно+27°C55 %747 мм6.1 м/с5 %
  • 26июля
    Пятница
    +20°
    +32°
    Небольшая облачность
    ВремяПогодаТемператураВлажностьДавлениеВетер, м/сВероятность осадков
    00:00Ясно и безоблачно+24°C64 %748 мм3.5 м/с5 %
    03:00Ясно и безоблачно+22°C72 %747 мм1.8 м/с5 %
    06:00Ясно и безоблачно+20°C80 %748 мм2.2 м/с5 %
    09:00Небольшая облачность+26°C53 %749 мм6.7 м/с4 %
    12:00Небольшая облачность+31°C36 %747 мм5.5 м/с5 %
    15:00Небольшая облачность+32°C30 %745 мм4.9 м/с3 %
    18:00Облачно с прояснениями+31°C35 %746 мм4.3 м/с5 %
    21:00Ясно и безоблачно+27°C46 %747 мм6.1 м/с6 %
  • 27июля
    Суббота
    +21°
    +34°
    Пасмурно, сплошная облачность
    ВремяПогодаТемператураВлажностьДавлениеВетер, м/сВероятность осадков
    00:00Ясно и безоблачно+24°C66 %747 мм5.0 м/с5 %
    03:00Ясно и безоблачно+22°C76 %747 мм2.4 м/с5 %
    06:00Ясно и безоблачно+21°C77 %748 мм2.6 м/с4 %
    09:00Небольшая облачность+27°C51 %749 мм4.3 м/с4 %
    12:00Облачно с прояснениями+33°C36 %747 мм4.8 м/с8 %
    15:00Пасмурно, сплошная облачность+33°C31 %745 мм4.5 м/с3 %
    18:00Ясно и безоблачно+30°C41 %746 мм5.1 м/с37 %
    21:00Ясно и безоблачно+27°C53 %748 мм5.1 м/с46 %
Мы используем cookies
Соглашаюсь